Página principal
METAR-TAF:

METAR-TAF

Aeroportos :

Roseau, Dominica

latitude: 15-32N, longitude: 061-24W, altura: 5 m

Observação actual do tempo

O boletim foi feito há 3 horas e 41 minutos, às 21:00 UTC
Vento 1 kt de su-sudoeste
Temperatura 30°C
Humidade 62%
Pressão 1011 hPa
Visibilidade 10 km ou mais
Poucas nuvensa uma altura de 1800 ft
Poucas nuvens , Cumulonimbus.

METAR: TDCF 032100Z 20001KT 9999 FEW018 FEW///CB 30/22 Q1011

Hora: 20:41 (00:41 UTC)


TAF: em falta

Observações e previsões do tempo de mais de 4000 aeroportos (mensagens METAR e TAF).

As estações disponíveis são os pontos amarelos e vermelhos sobre o mapa.

Mova o rato sobre o mapa para ver o nome da estação.

Depois clique no ponto para visualizar as observações e previsões meteorológicas.

Para alterar o mapa : clique nos botões verdes com uma cruz preta para aumentar o zoom; no botão verde com uma pitada de zoom; ou nas setas verdes para mapas adjacentes.


METAR-TAF: